NCAR-RAP Real-Time Weather Data

Output produced by METARs form (17 January 2018  22:23 UTC)
found at http://weather.rap.ucar.edu/surface/
 
Conditions at: KFMY observed 17 January 2018  21:53 UTC
Temperature: 18.9°C (66°F)
Dewpoint: 11.7°C (53°F) [RH = 63%]
Pressure (altimeter): 30.20 inches Hg (1022.8 mb)
[Sea-level pressure: 1022.8 mb]
Winds: from the WNW (290 degrees) at 14 MPH (12 knots; 6.2 m/s)
Visibility: 9 miles (14 km)
Ceiling: at least 12,000 feet AGL
Clouds: sky clear below 12,000 feet AGL
Present Weather: automated observation with no human augmentation;
there may or may not be significant weather present at this time
KFMY 172153Z AUTO 29012KT 9SM CLR 19/12 A3020 RMK AO2 SLP228 T01890117

Conditions at: KFMY observed 17 January 2018  20:53 UTC
Temperature: 20.6°C (69°F)
Dewpoint: 8.9°C (48°F) [RH = 47%]
Pressure (altimeter): 30.19 inches Hg (1022.4 mb)
[Sea-level pressure: 1022.5 mb]
Winds: from the WNW (300 degrees) at 12 MPH (10 knots; 5.2 m/s)
Visibility: 10 or more miles (16+ km)
Ceiling: at least 12,000 feet AGL
Clouds: sky clear below 12,000 feet AGL
Present Weather: automated observation with no human augmentation;
there may or may not be significant weather present at this time
KFMY 172053Z AUTO 30010KT 10SM CLR 21/09 A3019 RMK AO2 SLP225 T02060089 55009

Conditions at: KFMY observed 17 January 2018  19:53 UTC
Temperature: 22.2°C (72°F)
Dewpoint: 7.8°C (46°F) [RH = 40%]
Pressure (altimeter): 30.18 inches Hg (1022.1 mb)
[Sea-level pressure: 1022.3 mb]
Winds: from the NNW (330 degrees) at 16 MPH (14 knots; 7.3 m/s)
Visibility: 10 or more miles (16+ km)
Ceiling: at least 12,000 feet AGL
Clouds: sky clear below 12,000 feet AGL
Present Weather: no significant weather observed at this time
KFMY 171953Z 33014KT 10SM CLR 22/08 A3018 RMK AO2 SLP223 T02220078

Conditions at: KFMY observed 17 January 2018  18:53 UTC
Temperature: 22.8°C (73°F)
Dewpoint: 7.8°C (46°F) [RH = 38%]
Pressure (altimeter): 30.19 inches Hg (1022.4 mb)
[Sea-level pressure: 1022.6 mb]
Winds: from the WNW (290 degrees) at 14 MPH (12 knots; 6.2 m/s)
Visibility: 10 or more miles (16+ km)
Ceiling: at least 12,000 feet AGL
Clouds: sky clear below 12,000 feet AGL
Present Weather: no significant weather observed at this time
KFMY 171853Z 29012KT 10SM CLR 23/08 A3019 RMK AO2 SLP226 T02280078

Conditions at: KFMY observed 17 January 2018  17:53 UTC
Temperature: 22.2°C (72°F)
Dewpoint: 8.3°C (47°F) [RH = 41%]
Pressure (altimeter): 30.22 inches Hg (1023.5 mb)
[Sea-level pressure: 1023.4 mb]
Winds: from the NW (310 degrees) at 9 MPH (8 knots; 4.2 m/s)
Visibility: 10 or more miles (16+ km)
Ceiling: at least 12,000 feet AGL
Clouds: sky clear below 12,000 feet AGL
Present Weather: no significant weather observed at this time
KFMY 171753Z 31008KT 10SM CLR 22/08 A3022 RMK AO2 SLP234 T02220083 10228 20106 58018

Conditions at: KFMY observed 17 January 2018  16:53 UTC
Temperature: 21.1°C (70°F)
Dewpoint: 8.9°C (48°F) [RH = 46%]
Pressure (altimeter): 30.25 inches Hg (1024.5 mb)
[Sea-level pressure: 1024.5 mb]
Winds: from the NNW (340 degrees) at 9 MPH (8 knots; 4.2 m/s)
Visibility: 10 or more miles (16+ km)
Ceiling: at least 12,000 feet AGL
Clouds: sky clear below 12,000 feet AGL
Present Weather: no significant weather observed at this time
KFMY 171653Z 34008KT 10SM CLR 21/09 A3025 RMK AO2 SLP245 T02110089

Conditions at: KFMY observed 17 January 2018  15:53 UTC
Temperature: 20.0°C (68°F)
Dewpoint: 10.6°C (51°F) [RH = 55%]
Pressure (altimeter): 30.26 inches Hg (1024.8 mb)
[Sea-level pressure: 1024.9 mb]
Winds: from the N (10 degrees) at 6 MPH (5 knots; 2.6 m/s)
Visibility: 9 miles (14 km)
Ceiling: at least 12,000 feet AGL
Clouds: sky clear below 12,000 feet AGL
Present Weather: no significant weather observed at this time
KFMY 171553Z 01005KT 9SM CLR 20/11 A3026 RMK AO2 SLP249 T02000106

Conditions at: KFMY observed 17 January 2018  14:53 UTC
Temperature: 16.7°C (62°F)
Dewpoint: 11.7°C (53°F) [RH = 72%]
Pressure (altimeter): 30.27 inches Hg (1025.1 mb)
[Sea-level pressure: 1025.2 mb]
Winds: from the ENE (60 degrees) at 5 MPH (4 knots; 2.1 m/s)
Visibility: 9 miles (14 km)
Ceiling: at least 12,000 feet AGL
Clouds: sky clear below 12,000 feet AGL
Present Weather: no significant weather observed at this time
KFMY 171453Z 06004KT 9SM CLR 17/12 A3027 RMK AO2 SLP252 T01670117 51015

Conditions at: KFMY observed 17 January 2018  13:53 UTC
Temperature: 13.9°C (57°F)
Dewpoint: 12.2°C (54°F) [RH = 89%]
Pressure (altimeter): 30.26 inches Hg (1024.8 mb)
[Sea-level pressure: 1025.0 mb]
Winds: from the NE (40 degrees) at 5 MPH (4 knots; 2.1 m/s)
Visibility: 7 miles (11 km)
Ceiling: at least 12,000 feet AGL
Clouds: sky clear below 12,000 feet AGL
Present Weather: no significant weather observed at this time
KFMY 171353Z 04004KT 7SM CLR 14/12 A3026 RMK AO2 SLP250 T01390122

Conditions at: KFMY observed 17 January 2018  12:53 UTC
Temperature: 11.7°C (53°F)
Dewpoint: 10.6°C (51°F) [RH = 93%]
Pressure (altimeter): 30.24 inches Hg (1024.1 mb)
[Sea-level pressure: 1024.3 mb]
Winds: from the NNE (30 degrees) at 6 MPH (5 knots; 2.6 m/s)
Visibility: 6 miles (10 km)
Ceiling: at least 12,000 feet AGL
Clouds: sky clear below 12,000 feet AGL
Present Weather: BR  (mist)
KFMY 171253Z 03005KT 6SM BR CLR 12/11 A3024 RMK AO2 SLP243 T01170106

Conditions at: KFMY observed 17 January 2018  11:53 UTC
Temperature: 10.6°C (51°F)
Dewpoint: 10.0°C (50°F) [RH = 96%]
Pressure (altimeter): 30.23 inches Hg (1023.8 mb)
[Sea-level pressure: 1023.7 mb]
Winds: from the NNE (30 degrees) at 6 MPH (5 knots; 2.6 m/s)
Visibility: 7 miles (11 km)
Ceiling: at least 12,000 feet AGL
Clouds: sky clear below 12,000 feet AGL
Present Weather: no significant weather observed at this time
KFMY 171153Z 03005KT 7SM CLR 11/10 A3023 RMK AO2 SLP237 T01060100 10133 20100 51006

Conditions at: KFMY observed 17 January 2018  10:53 UTC
Temperature: 10.6°C (51°F)
Dewpoint: 10.0°C (50°F) [RH = 96%]
Pressure (altimeter): 30.23 inches Hg (1023.8 mb)
[Sea-level pressure: 1023.7 mb]
Winds: calm
Visibility: 7 miles (11 km)
Ceiling: at least 12,000 feet AGL
Clouds: sky clear below 12,000 feet AGL
Present Weather: automated observation with no human augmentation;
there may or may not be significant weather present at this time
KFMY 171053Z AUTO 00000KT 7SM CLR 11/10 A3023 RMK AO2 SLP237 T01060100

Conditions at: KFMY observed 17 January 2018  09:53 UTC
Temperature: 11.7°C (53°F)
Dewpoint: 10.6°C (51°F) [RH = 93%]
Pressure (altimeter): 30.21 inches Hg (1023.1 mb)
[Sea-level pressure: 1023.3 mb]
Winds: calm
Visibility: 8 miles (13 km)
Ceiling: at least 12,000 feet AGL
Clouds: sky clear below 12,000 feet AGL
Present Weather: automated observation with no human augmentation;
there may or may not be significant weather present at this time
KFMY 170953Z AUTO 00000KT 8SM CLR 12/11 A3021 RMK AO2 SLP233 T01170106

Conditions at: KFMY observed 17 January 2018  08:53 UTC
Temperature: 11.7°C (53°F)
Dewpoint: 10.6°C (51°F) [RH = 93%]
Pressure (altimeter): 30.21 inches Hg (1023.1 mb)
[Sea-level pressure: 1023.1 mb]
Winds: from the NNE (30 degrees) at 6 MPH (5 knots; 2.6 m/s)
Visibility: 8 miles (13 km)
Ceiling: at least 12,000 feet AGL
Clouds: sky clear below 12,000 feet AGL
Present Weather: automated observation with no human augmentation;
there may or may not be significant weather present at this time
KFMY 170853Z AUTO 03005KT 8SM CLR 12/11 A3021 RMK AO2 SLP231 T01170106 56012

Conditions at: KFMY observed 17 January 2018  07:53 UTC
Temperature: 12.2°C (54°F)
Dewpoint: 10.6°C (51°F) [RH = 90%]
Pressure (altimeter): 30.21 inches Hg (1023.1 mb)
[Sea-level pressure: 1023.3 mb]
Winds: calm
Visibility: 9 miles (14 km)
Ceiling: at least 12,000 feet AGL
Clouds: sky clear below 12,000 feet AGL
Present Weather: automated observation with no human augmentation;
there may or may not be significant weather present at this time
KFMY 170753Z AUTO 00000KT 9SM CLR 12/11 A3021 RMK AO2 SLP233 T01220106

Conditions at: KFMY observed 17 January 2018  06:53 UTC
Temperature: 12.8°C (55°F)
Dewpoint: 10.0°C (50°F) [RH = 83%]
Pressure (altimeter): 30.23 inches Hg (1023.8 mb)
[Sea-level pressure: 1023.7 mb]
Winds: from the NE (40 degrees) at 5 MPH (4 knots; 2.1 m/s)
Visibility: 10 or more miles (16+ km)
Ceiling: at least 12,000 feet AGL
Clouds: sky clear below 12,000 feet AGL
Present Weather: automated observation with no human augmentation;
there may or may not be significant weather present at this time
KFMY 170653Z AUTO 04004KT 10SM CLR 13/10 A3023 RMK AO2 SLP237 T01280100

Conditions at: KFMY observed 17 January 2018  05:53 UTC
Temperature: 13.3°C (56°F)
Dewpoint: 10.0°C (50°F) [RH = 80%]
Pressure (altimeter): 30.24 inches Hg (1024.1 mb)
[Sea-level pressure: 1024.3 mb]
Winds: from the NE (50 degrees) at 7 MPH (6 knots; 3.1 m/s)
Visibility: 10 or more miles (16+ km)
Ceiling: at least 12,000 feet AGL
Clouds: sky clear below 12,000 feet AGL
Present Weather: automated observation with no human augmentation;
there may or may not be significant weather present at this time
KFMY 170553Z AUTO 05006KT 10SM CLR 13/10 A3024 RMK AO2 SLP243 T01330100 10189 20133 58010

Conditions at: KFMY observed 17 January 2018  04:53 UTC
Temperature: 13.9°C (57°F)
Dewpoint: 10.0°C (50°F) [RH = 77%]
Pressure (altimeter): 30.26 inches Hg (1024.8 mb)
[Sea-level pressure: 1024.9 mb]
Winds: from the ENE (60 degrees) at 5 MPH (4 knots; 2.1 m/s)
Visibility: 10 or more miles (16+ km)
Ceiling: at least 12,000 feet AGL
Clouds: sky clear below 12,000 feet AGL
Present Weather: automated observation with no human augmentation;
there may or may not be significant weather present at this time
KFMY 170453Z AUTO 06004KT 10SM CLR 14/10 A3026 RMK AO2 SLP249 T01390100 402440100

Conditions at: KFMY observed 17 January 2018  03:53 UTC
Temperature: 15.0°C (59°F)
Dewpoint: 10.0°C (50°F) [RH = 72%]
Pressure (altimeter): 30.27 inches Hg (1025.1 mb)
[Sea-level pressure: 1025.2 mb]
Winds: from the E (80 degrees) at 5 MPH (4 knots; 2.1 m/s)
Visibility: 10 or more miles (16+ km)
Ceiling: at least 12,000 feet AGL
Clouds: sky clear below 12,000 feet AGL
Present Weather: automated observation with no human augmentation;
there may or may not be significant weather present at this time
KFMY 170353Z AUTO 08004KT 10SM CLR 15/10 A3027 RMK AO2 SLP252 T01500100

Conditions at: KFMY observed 17 January 2018  02:53 UTC
Temperature: 16.1°C (61°F)
Dewpoint: 9.4°C (49°F) [RH = 64%]
Pressure (altimeter): 30.27 inches Hg (1025.1 mb)
[Sea-level pressure: 1025.3 mb]
Winds: from the ENE (60 degrees) at 6 MPH (5 knots; 2.6 m/s)
Visibility: 10 or more miles (16+ km)
Ceiling: at least 12,000 feet AGL
Clouds: sky clear below 12,000 feet AGL
Present Weather: automated observation with no human augmentation;
there may or may not be significant weather present at this time
KFMY 170253Z AUTO 06005KT 10SM CLR 16/09 A3027 RMK AO2 SLP253 T01610094 53014

Conditions at: KFMY observed 17 January 2018  01:53 UTC
Temperature: 16.7°C (62°F)
Dewpoint: 8.9°C (48°F) [RH = 60%]
Pressure (altimeter): 30.25 inches Hg (1024.5 mb)
[Sea-level pressure: 1024.6 mb]
Winds: from the ENE (60 degrees) at 6 MPH (5 knots; 2.6 m/s)
Visibility: 10 or more miles (16+ km)
Ceiling: at least 12,000 feet AGL
Clouds: sky clear below 12,000 feet AGL
Present Weather: automated observation with no human augmentation;
there may or may not be significant weather present at this time
KFMY 170153Z AUTO 06005KT 10SM CLR 17/09 A3025 RMK AO2 SLP246 T01670089

Conditions at: KFMY observed 17 January 2018  00:53 UTC
Temperature: 17.2°C (63°F)
Dewpoint: 8.9°C (48°F) [RH = 58%]
Pressure (altimeter): 30.25 inches Hg (1024.5 mb)
[Sea-level pressure: 1024.5 mb]
Winds: from the NE (40 degrees) at 7 MPH (6 knots; 3.1 m/s)
Visibility: 10 or more miles (16+ km)
Ceiling: at least 12,000 feet AGL
Clouds: sky clear below 12,000 feet AGL
Present Weather: automated observation with no human augmentation;
there may or may not be significant weather present at this time
KFMY 170053Z AUTO 04006KT 10SM CLR 17/09 A3025 RMK AO2 SLP245 T01720089

Conditions at: KFMY observed 16 January 2018  23:53 UTC
Temperature: 18.9°C (66°F)
Dewpoint: 8.9°C (48°F) [RH = 52%]
Pressure (altimeter): 30.23 inches Hg (1023.8 mb)
[Sea-level pressure: 1023.9 mb]
Winds: from the NE (50 degrees) at 6 MPH (5 knots; 2.6 m/s)
Visibility: 10 or more miles (16+ km)
Ceiling: at least 12,000 feet AGL
Clouds: sky clear below 12,000 feet AGL
Present Weather: no significant weather observed at this time
KFMY 162353Z 05005KT 10SM CLR 19/09 A3023 RMK AO2 SLP239 T01890089 10244 20183 55000

Conditions at: KFMY observed 16 January 2018  22:53 UTC
Temperature: 20.6°C (69°F)
Dewpoint: 8.3°C (47°F) [RH = 45%]
Pressure (altimeter): 30.22 inches Hg (1023.5 mb)
[Sea-level pressure: 1023.7 mb]
Winds: from the NE (40 degrees) at 7 MPH (6 knots; 3.1 m/s)
Visibility: 10 or more miles (16+ km)
Ceiling: at least 12,000 feet AGL
Clouds: sky clear below 12,000 feet AGL
Present Weather: no significant weather observed at this time
KFMY 162253Z 04006KT 10SM CLR 21/08 A3022 RMK AO2 SLP237 T02060083

Conditions at: KFMY observed 16 January 2018  21:53 UTC
Temperature: 22.8°C (73°F)
Dewpoint: 8.3°C (47°F) [RH = 39%]
Pressure (altimeter): 30.23 inches Hg (1023.8 mb)
[Sea-level pressure: 1023.7 mb]
Winds: from the NNE (20 degrees) at 13 MPH (11 knots; 5.7 m/s)
Visibility: 10 or more miles (16+ km)
Ceiling: at least 12,000 feet AGL
Clouds: scattered clouds at 6500 feet AGL
Present Weather: no significant weather observed at this time
KFMY 162153Z 02011KT 10SM SCT065 23/08 A3023 RMK AO2 SLP237 T02280083

Conditions at: KFMY observed 16 January 2018  20:53 UTC
Temperature: 24.4°C (76°F)
Dewpoint: 8.9°C (48°F) [RH = 37%]
Pressure (altimeter): 30.23 inches Hg (1023.8 mb)
[Sea-level pressure: 1023.9 mb]
Winds: from the NE (40 degrees) at 13 MPH (11 knots; 5.7 m/s)
Visibility: 10 or more miles (16+ km)
Ceiling: at least 12,000 feet AGL
Clouds: scattered clouds at 6500 feet AGL
Present Weather: no significant weather observed at this time
KFMY 162053Z 04011KT 10SM SCT065 24/09 A3023 RMK AO2 SLP239 T02440089 55017

Conditions at: KFMY observed 16 January 2018  19:53 UTC
Temperature: 23.3°C (74°F)
Dewpoint: 8.9°C (48°F) [RH = 40%]
Pressure (altimeter): 30.22 inches Hg (1023.5 mb)
[Sea-level pressure: 1023.6 mb]
Winds: from the NE (50 degrees) at 9 MPH (8 knots; 4.2 m/s)
Visibility: 10 or more miles (16+ km)
Ceiling: at least 12,000 feet AGL
Clouds: few clouds at 6000 feet AGL
Present Weather: no significant weather observed at this time
KFMY 161953Z 05008KT 10SM FEW060 23/09 A3022 RMK AO2 SLP236 T02330089

Conditions at: KFMY observed 16 January 2018  18:53 UTC
Temperature: 22.8°C (73°F)
Dewpoint: 8.9°C (48°F) [RH = 41%]
Pressure (altimeter): 30.24 inches Hg (1024.1 mb)
[Sea-level pressure: 1024.3 mb]
Winds: from the ENE (60 degrees) at 8 MPH (7 knots; 3.6 m/s)
Visibility: 10 or more miles (16+ km)
Ceiling: 6000 feet AGL
Clouds: broken clouds at 6000 feet AGL
Present Weather: no significant weather observed at this time
KFMY 161853Z 06007KT 10SM BKN060 23/09 A3024 RMK AO2 SLP243 T02280089

Conditions at: KFMY observed 16 January 2018  17:53 UTC
Temperature: 23.9°C (75°F)
Dewpoint: 10.0°C (50°F) [RH = 41%]
Pressure (altimeter): 30.28 inches Hg (1025.5 mb)
[Sea-level pressure: 1025.6 mb]
Winds: from the ENE (70 degrees) at 9 MPH (8 knots; 4.2 m/s)
Visibility: 10 or more miles (16+ km)
Ceiling: at least 12,000 feet AGL
Clouds: sky clear below 12,000 feet AGL
Present Weather: no significant weather observed at this time
KFMY 161753Z 07008KT 10SM CLR 24/10 A3028 RMK AO2 SLP256 T02390100 10239 20100 58021

Conditions at: KFMY observed 16 January 2018  16:53 UTC
Temperature: 22.8°C (73°F)
Dewpoint: 11.1°C (52°F) [RH = 48%]
Pressure (altimeter): 30.30 inches Hg (1026.2 mb)
[Sea-level pressure: 1026.4 mb]
Winds: from the E (80 degrees) at 10 MPH (9 knots; 4.7 m/s)
gusting to 18 MPH (16 knots; 8.3 m/s)
Visibility: 10 or more miles (16+ km)
Ceiling: at least 12,000 feet AGL
Clouds: sky clear below 12,000 feet AGL
Present Weather: no significant weather observed at this time
KFMY 161653Z 08009G16KT 10SM CLR 23/11 A3030 RMK AO2 SLP264 T02280111

Conditions at: KFMY observed 16 January 2018  15:53 UTC
Temperature: 21.1°C (70°F)
Dewpoint: 11.7°C (53°F) [RH = 55%]
Pressure (altimeter): 30.33 inches Hg (1027.2 mb)
[Sea-level pressure: 1027.3 mb]
Winds: from the E (90 degrees) at 13 MPH (11 knots; 5.7 m/s)
Visibility: 10 or more miles (16+ km)
Ceiling: at least 12,000 feet AGL
Clouds: sky clear below 12,000 feet AGL
Present Weather: no significant weather observed at this time
KFMY 161553Z 09011KT 10SM CLR 21/12 A3033 RMK AO2 SLP273 T02110117

Conditions at: KFMY observed 16 January 2018  14:53 UTC
Temperature: 17.8°C (64°F)
Dewpoint: 11.1°C (52°F) [RH = 65%]
Pressure (altimeter): 30.34 inches Hg (1027.5 mb)
[Sea-level pressure: 1027.7 mb]
Winds: from the E (80 degrees) at 10 MPH (9 knots; 4.7 m/s)
Visibility: 9 miles (14 km)
Ceiling: at least 12,000 feet AGL
Clouds: sky clear below 12,000 feet AGL
Present Weather: no significant weather observed at this time
KFMY 161453Z 08009KT 9SM CLR 18/11 A3034 RMK AO2 SLP277 T01780111 51012

Conditions at: KFMY observed 16 January 2018  13:53 UTC
Temperature: 14.4°C (58°F)
Dewpoint: 10.6°C (51°F) [RH = 78%]
Pressure (altimeter): 30.33 inches Hg (1027.2 mb)
[Sea-level pressure: 1027.3 mb]
Winds: from the ENE (60 degrees) at 8 MPH (7 knots; 3.6 m/s)
Visibility: 8 miles (13 km)
Ceiling: at least 12,000 feet AGL
Clouds: sky clear below 12,000 feet AGL
Present Weather:
SOME DATA ABOVE MAY BE INACCURATE!!!
"$" is an indication the sensor requires maintenance
KFMY 161353Z 06007KT 8SM CLR 14/11 A3033 RMK AO2 SLP273 T01440106 $

Conditions at: KFMY observed 16 January 2018  12:53 UTC
Temperature: 11.1°C (52°F)
Dewpoint: 10.0°C (50°F) [RH = 93%]
Pressure (altimeter): 30.32 inches Hg (1026.8 mb)
[Sea-level pressure: 1027.0 mb]
Winds: from the NE (50 degrees) at 5 MPH (4 knots; 2.1 m/s)
Visibility: 7 miles (11 km)
Ceiling: at least 12,000 feet AGL
Clouds: sky clear below 12,000 feet AGL
Present Weather:
SOME DATA ABOVE MAY BE INACCURATE!!!
"$" is an indication the sensor requires maintenance
KFMY 161253Z 05004KT 7SM CLR 11/10 A3032 RMK AO2 SLP270 T01110100 $

Conditions at: KFMY observed 16 January 2018  11:53 UTC
Temperature: 10.6°C (51°F)
Dewpoint: 9.4°C (49°F) [RH = 92%]
Pressure (altimeter): 30.31 inches Hg (1026.5 mb)
[Sea-level pressure: 1026.5 mb]
Winds: from the NE (50 degrees) at 7 MPH (6 knots; 3.1 m/s)
Visibility: 9 miles (14 km)
Ceiling: at least 12,000 feet AGL
Clouds: sky clear below 12,000 feet AGL
Present Weather: no significant weather observed at this time
KFMY 161153Z 05006KT 9SM CLR 11/09 A3031 RMK AO2 SLP265 T01060094 10122 20106 53012

Conditions at: KFMY observed 16 January 2018  10:53 UTC
Temperature: 10.6°C (51°F)
Dewpoint: 9.4°C (49°F) [RH = 92%]
Pressure (altimeter): 30.29 inches Hg (1025.8 mb)
[Sea-level pressure: 1026.0 mb]
Winds: from the NE (40 degrees) at 7 MPH (6 knots; 3.1 m/s)
Visibility: 9 miles (14 km)
Ceiling: at least 12,000 feet AGL
Clouds: sky clear below 12,000 feet AGL
Present Weather: automated observation with no human augmentation;
there may or may not be significant weather present at this time
KFMY 161053Z AUTO 04006KT 9SM CLR 11/09 A3029 RMK AO2 SLP260 T01060094

Conditions at: KFMY observed 16 January 2018  09:53 UTC
Temperature: 10.6°C (51°F)
Dewpoint: 9.4°C (49°F) [RH = 92%]
Pressure (altimeter): 30.28 inches Hg (1025.5 mb)
[Sea-level pressure: 1025.4 mb]
Winds: from the NE (40 degrees) at 6 MPH (5 knots; 2.6 m/s)
Visibility: 8 miles (13 km)
Ceiling: at least 12,000 feet AGL
Clouds: sky clear below 12,000 feet AGL
Present Weather: automated observation with no human augmentation;
there may or may not be significant weather present at this time
KFMY 160953Z AUTO 04005KT 8SM CLR 11/09 A3028 RMK AO2 SLP254 T01060094

Conditions at: KFMY observed 16 January 2018  08:53 UTC
Temperature: 11.1°C (52°F)
Dewpoint: 9.4°C (49°F) [RH = 89%]
Pressure (altimeter): 30.27 inches Hg (1025.1 mb)
[Sea-level pressure: 1025.3 mb]
Winds: from the NE (50 degrees) at 8 MPH (7 knots; 3.6 m/s)
Visibility: 8 miles (13 km)
Ceiling: at least 12,000 feet AGL
Clouds: sky clear below 12,000 feet AGL
Present Weather: automated observation with no human augmentation;
there may or may not be significant weather present at this time
KFMY 160853Z AUTO 05007KT 8SM CLR 11/09 A3027 RMK AO2 SLP253 T01110094 55005

Conditions at: KFMY observed 16 January 2018  07:53 UTC
Temperature: 11.7°C (53°F)
Dewpoint: 8.9°C (48°F) [RH = 83%]
Pressure (altimeter): 30.27 inches Hg (1025.1 mb)
[Sea-level pressure: 1025.2 mb]
Winds: from the NE (50 degrees) at 10 MPH (9 knots; 4.7 m/s)
Visibility: 9 miles (14 km)
Ceiling: at least 12,000 feet AGL
Clouds: sky clear below 12,000 feet AGL
Present Weather: automated observation with no human augmentation;
there may or may not be significant weather present at this time
KFMY 160753Z AUTO 05009KT 9SM CLR 12/09 A3027 RMK AO2 SLP252 T01170089

Conditions at: KFMY observed 16 January 2018  06:53 UTC
Temperature: 11.7°C (53°F)
Dewpoint: 8.9°C (48°F) [RH = 83%]
Pressure (altimeter): 30.29 inches Hg (1025.8 mb)
[Sea-level pressure: 1025.8 mb]
Winds: from the NE (40 degrees) at 10 MPH (9 knots; 4.7 m/s)
Visibility: 9 miles (14 km)
Ceiling: at least 12,000 feet AGL
Clouds: sky clear below 12,000 feet AGL
Present Weather: automated observation with no human augmentation;
there may or may not be significant weather present at this time
KFMY 160653Z AUTO 04009KT 9SM CLR 12/09 A3029 RMK AO2 SLP258 T01170089

Conditions at: KFMY observed 16 January 2018  05:53 UTC
Temperature: 12.2°C (54°F)
Dewpoint: 8.9°C (48°F) [RH = 80%]
Pressure (altimeter): 30.29 inches Hg (1025.8 mb)
[Sea-level pressure: 1025.9 mb]
Winds: from the NE (40 degrees) at 12 MPH (10 knots; 5.2 m/s)
Visibility: 9 miles (14 km)
Ceiling: at least 12,000 feet AGL
Clouds: sky clear below 12,000 feet AGL
Present Weather: automated observation with no human augmentation;
there may or may not be significant weather present at this time
KFMY 160553Z AUTO 04010KT 9SM CLR 12/09 A3029 RMK AO2 SLP259 T01220089 10189 20122 58006

Conditions at: KFMY observed 16 January 2018  04:53 UTC
Temperature: 13.3°C (56°F)
Dewpoint: 8.3°C (47°F) [RH = 72%]
Pressure (altimeter): 30.30 inches Hg (1026.2 mb)
[Sea-level pressure: 1026.3 mb]
Winds: from the NE (40 degrees) at 15 MPH (13 knots; 6.8 m/s)
Visibility: 10 or more miles (16+ km)
Ceiling: at least 12,000 feet AGL
Clouds: few clouds at 3900 feet AGL
Present Weather: automated observation with no human augmentation;
there may or may not be significant weather present at this time
KFMY 160453Z AUTO 04013KT 10SM FEW039 13/08 A3030 RMK AO2 SLP263 T01330083 402280089

Conditions at: KFMY observed 16 January 2018  03:53 UTC
Temperature: 14.4°C (58°F)
Dewpoint: 8.9°C (48°F) [RH = 70%]
Pressure (altimeter): 30.31 inches Hg (1026.5 mb)
[Sea-level pressure: 1026.6 mb]
Winds: from the NE (40 degrees) at 15 MPH (13 knots; 6.8 m/s)
Visibility: 10 or more miles (16+ km)
Ceiling: 4500 feet AGL
Clouds: broken clouds at 4500 feet AGL
Present Weather: automated observation with no human augmentation;
there may or may not be significant weather present at this time
KFMY 160353Z AUTO 04013KT 10SM BKN045 14/09 A3031 RMK AO2 SLP266 T01440089

Conditions at: KFMY observed 16 January 2018  02:53 UTC
Temperature: 15.0°C (59°F)
Dewpoint: 9.4°C (49°F) [RH = 69%]
Pressure (altimeter): 30.31 inches Hg (1026.5 mb)
[Sea-level pressure: 1026.4 mb]
Winds: from the NE (40 degrees) at 13 MPH (11 knots; 5.7 m/s)
gusting to 20 MPH (17 knots; 8.8 m/s)
Visibility: 10 or more miles (16+ km)
Ceiling: 6500 feet AGL
Clouds: scattered clouds at 5000 feet AGL
broken clouds at 6500 feet AGL
Present Weather: automated observation with no human augmentation;
there may or may not be significant weather present at this time
KFMY 160253Z AUTO 04011G17KT 10SM SCT050 BKN065 15/09 A3031 RMK AO2 SLP264 T01500094 51015

Conditions at: KFMY observed 16 January 2018  01:53 UTC
Temperature: 16.1°C (61°F)
Dewpoint: 8.9°C (48°F) [RH = 62%]
Pressure (altimeter): 30.29 inches Hg (1025.8 mb)
[Sea-level pressure: 1026.0 mb]
Winds: from the NE (50 degrees) at 15 MPH (13 knots; 6.8 m/s)
Visibility: 10 or more miles (16+ km)
Ceiling: at least 12,000 feet AGL
Clouds: few clouds at 4400 feet AGL
Present Weather: no significant weather observed at this time
KFMY 160153Z 05013KT 10SM FEW044 16/09 A3029 RMK AO2 SLP260 T01610089

Conditions at: KFMY observed 16 January 2018  00:53 UTC
Temperature: 17.8°C (64°F)
Dewpoint: 10.0°C (50°F) [RH = 60%]
Pressure (altimeter): 30.28 inches Hg (1025.5 mb)
[Sea-level pressure: 1025.5 mb]
Winds: from the ENE (60 degrees) at 9 MPH (8 knots; 4.2 m/s)
Visibility: 9 miles (14 km)
Ceiling: 5500 feet AGL
Clouds: overcast cloud deck at 5500 feet AGL
Present Weather: no significant weather observed at this time
KFMY 160053Z 06008KT 9SM OVC055 18/10 A3028 RMK AO2 SLP255 T01780100

Conditions at: KFMY observed 15 January 2018  23:53 UTC
Temperature: 18.9°C (66°F)
Dewpoint: 12.2°C (54°F) [RH = 65%]
Pressure (altimeter): 30.26 inches Hg (1024.8 mb)
[Sea-level pressure: 1025.0 mb]
Winds: from the ENE (60 degrees) at 10 MPH (9 knots; 4.7 m/s)
Visibility: 10 or more miles (16+ km)
Ceiling: 5500 feet AGL
Clouds: broken clouds at 5500 feet AGL
Present Weather: no significant weather observed at this time
KFMY 152353Z 06009KT 10SM BKN055 19/12 A3026 RMK AO2 SLP250 T01890122 10228 20189 53015

Conditions at: KFMY observed 15 January 2018  22:53 UTC
Temperature: 19.4°C (67°F)
Dewpoint: 12.2°C (54°F) [RH = 63%]
Pressure (altimeter): 30.24 inches Hg (1024.1 mb)
[Sea-level pressure: 1024.2 mb]
Winds: from the NE (40 degrees) at 13 MPH (11 knots; 5.7 m/s)
Visibility: 9 miles (14 km)
Ceiling: 4900 feet AGL
Clouds: scattered clouds at 4000 feet AGL
broken clouds at 4900 feet AGL
Present Weather: no significant weather observed at this time
KFMY 152253Z 04011KT 9SM SCT040 BKN049 19/12 A3024 RMK AO2 SLP242 T01940122